createdAt,value
2023-02-03T00:01:23.782Z,2.29
2023-02-03T00:04:26.665Z,2.69
2023-02-03T00:07:29.954Z,2.53
2023-02-03T00:10:35.324Z,2.36
2023-02-03T00:13:38.402Z,2.11
2023-02-03T00:16:41.466Z,2.14
2023-02-03T00:19:44.489Z,2.14
2023-02-03T00:22:47.480Z,1.87
2023-02-03T00:25:50.809Z,1.80
2023-02-03T00:28:54.199Z,1.83
2023-02-03T00:31:59.166Z,1.87
2023-02-03T00:35:02.790Z,1.76
2023-02-03T00:38:05.773Z,1.60
2023-02-03T00:41:08.830Z,1.46
2023-02-03T00:44:11.919Z,1.41
2023-02-03T00:47:14.917Z,1.50
2023-02-03T00:50:17.950Z,1.46
2023-02-03T00:53:20.840Z,2.17
2023-02-03T00:56:23.819Z,3.75
2023-02-03T00:59:27.017Z,3.39
2023-02-03T01:02:30.345Z,1.96
2023-02-03T01:05:33.374Z,2.07
2023-02-03T01:08:36.399Z,3.21
2023-02-03T01:11:39.391Z,3.91
2023-02-03T01:14:42.369Z,2.88
2023-02-03T01:17:45.438Z,1.55
2023-02-03T01:20:48.412Z,0.64
2023-02-03T01:23:52.609Z,0.38
2023-02-03T01:26:55.572Z,1.43
2023-02-03T01:29:58.538Z,3.53
2023-02-03T01:33:01.570Z,4.69
2023-02-03T01:36:04.603Z,4.41
2023-02-03T01:39:08.337Z,2.78
2023-02-03T01:42:16.138Z,1.40
2023-02-03T01:45:19.687Z,1.17
2023-02-03T01:48:22.803Z,2.92
2023-02-03T01:51:26.176Z,4.41
2023-02-03T01:54:37.685Z,4.70
2023-02-03T01:57:52.720Z,2.71
2023-02-03T02:00:57.779Z,1.25
2023-02-03T02:04:03.179Z,0.39
2023-02-03T02:07:07.142Z,1.30
2023-02-03T02:10:11.199Z,3.63
2023-02-03T02:13:17.934Z,4.96
2023-02-03T02:17:05.691Z,4.76
2023-02-03T02:20:24.548Z,2.73
2023-02-03T02:23:53.622Z,1.45
2023-02-03T02:26:59.666Z,0.50
2023-02-03T02:30:24.419Z,-0.18
2023-02-03T02:33:42.920Z,-0.61
2023-02-03T02:37:07.402Z,-0.10
2023-02-03T02:40:24.139Z,0.65
2023-02-03T02:43:40.123Z,1.65
2023-02-03T02:47:02.201Z,2.78
2023-02-03T02:50:09.016Z,3.84
2023-02-03T02:53:15.220Z,4.08
2023-02-03T02:56:19.795Z,2.62
2023-02-03T02:59:22.823Z,1.29
2023-02-03T03:02:34.066Z,0.36
2023-02-03T03:05:37.350Z,-0.36
2023-02-03T03:08:52.791Z,-0.62
2023-02-03T03:12:05.165Z,0.89
2023-02-03T03:15:14.748Z,2.69
2023-02-03T03:18:31.499Z,3.45
2023-02-03T03:21:46.316Z,3.78
2023-02-03T03:24:55.565Z,2.64
2023-02-03T03:28:06.112Z,1.22
2023-02-03T03:31:09.187Z,0.31
2023-02-03T03:34:14.257Z,-0.29
2023-02-03T03:37:46.541Z,-0.44
2023-02-03T03:40:57.758Z,1.23
2023-02-03T03:44:06.572Z,2.81
2023-02-03T03:47:17.873Z,3.04
2023-02-03T03:50:29.556Z,2.95
2023-02-03T03:53:37.021Z,2.90
2023-02-03T03:56:58.162Z,2.71
2023-02-03T04:00:04.322Z,3.23
2023-02-03T04:03:21.044Z,3.51
2023-02-03T04:06:24.207Z,2.89
2023-02-03T04:09:27.197Z,1.76
2023-02-03T04:12:30.165Z,0.89
2023-02-03T04:15:34.402Z,0.26
2023-02-03T04:18:37.500Z,0.87
2023-02-03T04:21:40.388Z,3.26
2023-02-03T04:24:43.474Z,4.21
2023-02-03T04:27:46.740Z,3.36
2023-02-03T04:30:49.806Z,2.06
2023-02-03T04:33:52.802Z,1.13
2023-02-03T04:36:55.780Z,0.46
2023-02-03T04:39:58.893Z,-0.09
2023-02-03T04:43:07.912Z,-0.30
2023-02-03T04:46:11.325Z,-0.34
2023-02-03T04:49:14.317Z,-0.30
2023-02-03T04:52:17.375Z,-0.07
2023-02-03T04:55:20.382Z,1.25
2023-02-03T04:58:23.732Z,2.79
2023-02-03T05:01:26.770Z,3.54
2023-02-03T05:04:29.954Z,3.90
2023-02-03T05:07:32.929Z,3.97
2023-02-03T05:10:35.956Z,2.88
2023-02-03T05:13:38.852Z,1.78
2023-02-03T05:16:41.938Z,1.00
2023-02-03T05:19:45.212Z,0.41
2023-02-03T05:22:48.349Z,-0.07
2023-02-03T05:25:51.380Z,-0.40
2023-02-03T05:28:56.616Z,-0.41
2023-02-03T05:32:00.433Z,-0.49
2023-02-03T05:35:03.476Z,-0.63
2023-02-03T05:38:06.697Z,-0.78
2023-02-03T05:41:30.723Z,-0.92
2023-02-03T05:44:33.780Z,-1.04
2023-02-03T05:47:36.821Z,-1.10
2023-02-03T05:50:39.825Z,-1.14
2023-02-03T05:53:42.926Z,-1.18
2023-02-03T05:56:45.854Z,-1.20
2023-02-03T05:59:49.906Z,-1.22
2023-02-03T06:02:58.489Z,-1.23
2023-02-03T06:06:01.634Z,-1.23
2023-02-03T06:09:06.905Z,-1.23
2023-02-03T06:12:09.768Z,-1.20
2023-02-03T06:15:13.186Z,-1.17
2023-02-03T06:18:16.101Z,-1.14
2023-02-03T06:21:20.452Z,-1.11
2023-02-03T06:24:23.258Z,-1.08
2023-02-03T06:27:26.487Z,-1.06
2023-02-03T06:30:29.880Z,-1.02
2023-02-03T06:33:33.389Z,-1.00
2023-02-03T06:36:36.387Z,-0.98
2023-02-03T06:39:39.361Z,-0.94
2023-02-03T06:42:46.156Z,-0.90
2023-02-03T06:45:49.141Z,-0.88
2023-02-03T06:48:52.121Z,-0.87
2023-02-03T06:51:55.238Z,-0.85
2023-02-03T06:54:58.156Z,-0.80
2023-02-03T06:58:01.161Z,-0.75
2023-02-03T07:01:04.329Z,-0.72
2023-02-03T07:04:07.224Z,-0.67
2023-02-03T07:07:10.042Z,-0.61
2023-02-03T07:10:12.920Z,-0.54
2023-02-03T07:13:15.715Z,-0.47
2023-02-03T07:16:18.730Z,-0.39
2023-02-03T07:19:21.609Z,-0.27
2023-02-03T07:22:24.471Z,-0.18
2023-02-03T07:25:27.589Z,-0.12
2023-02-03T07:28:35.208Z,-0.05
2023-02-03T07:31:38.626Z,0.02
2023-02-03T07:34:41.616Z,0.08
2023-02-03T07:37:44.910Z,0.15
2023-02-03T07:40:47.803Z,0.21
2023-02-03T07:43:50.692Z,0.28
2023-02-03T07:46:53.554Z,0.35
2023-02-03T07:49:56.486Z,0.44
2023-02-03T07:53:00.225Z,0.52
2023-02-03T07:56:05.362Z,0.62
2023-02-03T07:59:08.543Z,0.69
2023-02-03T08:02:14.105Z,0.75
2023-02-03T08:05:18.587Z,0.77
2023-02-03T08:08:21.394Z,0.80
2023-02-03T08:11:24.202Z,0.88
2023-02-03T08:14:27.080Z,1.00
2023-02-03T08:17:29.911Z,1.09
2023-02-03T08:20:32.713Z,1.17
2023-02-03T08:23:35.590Z,1.25
2023-02-03T08:26:38.991Z,1.34
2023-02-03T08:29:41.946Z,1.38
2023-02-03T08:32:44.804Z,1.42
2023-02-03T08:35:49.978Z,1.50
2023-02-03T08:38:52.942Z,1.59
2023-02-03T08:41:55.734Z,1.65
2023-02-03T08:44:59.015Z,1.65
2023-02-03T08:48:01.967Z,1.64
2023-02-03T08:51:16.061Z,1.64
2023-02-03T08:54:19.471Z,1.67
2023-02-03T08:57:22.321Z,1.78
2023-02-03T09:00:25.495Z,1.93
2023-02-03T09:03:28.531Z,2.11
2023-02-03T09:06:31.533Z,2.29
2023-02-03T09:09:37.030Z,2.44
2023-02-03T09:12:39.948Z,2.50
2023-02-03T09:15:42.752Z,2.56
2023-02-03T09:18:46.524Z,2.63
2023-02-03T09:21:49.746Z,2.69
2023-02-03T09:24:52.707Z,2.73
2023-02-03T09:27:55.711Z,2.73
2023-02-03T09:31:03.485Z,2.66
2023-02-03T09:34:06.394Z,2.58
2023-02-03T09:37:09.266Z,2.55
2023-02-03T09:40:31.103Z,2.57
2023-02-03T09:43:46.882Z,2.64
2023-02-03T09:46:55.563Z,2.64
2023-02-03T09:50:01.959Z,2.59
2023-02-03T09:53:08.112Z,2.57
2023-02-03T09:56:36.347Z,2.51
2023-02-03T09:59:40.986Z,2.47
2023-02-03T10:02:55.811Z,2.48
2023-02-03T10:06:31.824Z,2.53
2023-02-03T10:09:56.253Z,2.51
2023-02-03T10:13:10.226Z,2.45
2023-02-03T10:16:31.616Z,2.40
2023-02-03T10:19:44.575Z,2.40
2023-02-03T10:22:58.779Z,2.48
2023-02-03T10:26:09.591Z,2.56
2023-02-03T10:29:37.701Z,2.61
2023-02-03T10:32:40.489Z,2.66
2023-02-03T10:35:49.203Z,2.71
2023-02-03T10:39:24.569Z,2.81
2023-02-03T10:42:50.247Z,2.91
2023-02-03T10:45:53.293Z,2.97
2023-02-03T10:48:57.415Z,3.00
2023-02-03T10:52:05.069Z,3.03
2023-02-03T10:55:30.229Z,3.04
2023-02-03T10:58:34.600Z,3.07
2023-02-03T11:01:44.626Z,3.08
2023-02-03T11:04:47.608Z,3.12
2023-02-03T11:07:52.475Z,3.14
2023-02-03T11:11:03.255Z,3.18
2023-02-03T11:14:09.073Z,3.28
2023-02-03T11:17:19.294Z,3.36
2023-02-03T11:20:26.722Z,3.40
2023-02-03T11:23:29.992Z,3.44
2023-02-03T11:26:42.042Z,3.50
2023-02-03T11:29:48.775Z,3.56
2023-02-03T11:32:53.426Z,3.58
2023-02-03T11:35:59.232Z,3.61
2023-02-03T11:39:30.287Z,3.60
2023-02-03T11:42:36.074Z,3.60
2023-02-03T11:45:48.611Z,3.61
2023-02-03T11:49:10.435Z,3.53
2023-02-03T11:52:22.598Z,3.46
2023-02-03T11:55:54.866Z,3.49
2023-02-03T11:59:33.281Z,3.46
2023-02-03T12:02:53.532Z,3.43
2023-02-03T12:06:07.211Z,3.48
2023-02-03T12:09:22.906Z,3.54
2023-02-03T12:12:56.252Z,3.59
2023-02-03T12:16:31.991Z,3.61
2023-02-03T12:19:59.276Z,3.61
2023-02-03T12:23:05.111Z,3.59
2023-02-03T12:26:18.579Z,3.58
2023-02-03T12:29:28.473Z,3.58
2023-02-03T12:32:38.618Z,3.57
2023-02-03T12:35:52.134Z,3.55
2023-02-03T12:39:09.302Z,3.49
2023-02-03T12:42:24.527Z,3.39
2023-02-03T12:45:35.116Z,3.28
2023-02-03T12:48:44.280Z,3.19
2023-02-03T12:51:52.109Z,3.11
2023-02-03T12:55:16.325Z,3.02
2023-02-03T12:58:37.280Z,3.00
2023-02-03T13:01:51.274Z,3.01
2023-02-03T13:05:01.813Z,3.00
2023-02-03T13:08:23.600Z,2.97
2023-02-03T13:11:48.673Z,2.96
2023-02-03T13:15:16.250Z,2.92
2023-02-03T13:18:34.795Z,2.91
2023-02-03T13:21:37.801Z,2.93
2023-02-03T13:24:50.669Z,2.90
2023-02-03T13:28:06.465Z,2.82
2023-02-03T13:31:43.891Z,2.75
2023-02-03T13:35:12.979Z,2.65
2023-02-03T13:39:02.872Z,2.59
2023-02-03T13:42:20.408Z,2.52
2023-02-03T13:45:39.084Z,2.49
2023-02-03T13:48:45.855Z,2.48
2023-02-03T13:51:48.869Z,2.47
2023-02-03T13:54:51.944Z,2.47
2023-02-03T13:57:55.333Z,2.47
2023-02-03T14:01:05.493Z,2.48
2023-02-03T14:04:28.771Z,2.48
2023-02-03T14:07:35.204Z,2.46
2023-02-03T14:10:38.306Z,2.45
2023-02-03T14:13:41.364Z,2.45
2023-02-03T14:16:51.971Z,2.41
2023-02-03T14:19:56.401Z,2.36
2023-02-03T14:23:05.523Z,2.33
2023-02-03T14:26:18.131Z,2.32
2023-02-03T14:29:25.824Z,2.34
2023-02-03T14:32:48.356Z,2.38
2023-02-03T14:35:51.562Z,2.43
2023-02-03T14:38:56.649Z,2.44
2023-02-03T14:42:02.422Z,2.46
2023-02-03T14:45:14.599Z,2.50
2023-02-03T14:48:33.065Z,2.56
2023-02-03T14:51:42.214Z,2.61
2023-02-03T14:55:34.651Z,2.65
2023-02-03T14:58:46.071Z,2.70
2023-02-03T15:01:49.093Z,2.76
2023-02-03T15:05:13.136Z,2.82
2023-02-03T15:08:42.414Z,2.86
2023-02-03T15:11:45.503Z,2.87
2023-02-03T15:14:48.731Z,2.89
2023-02-03T15:17:54.417Z,2.92
2023-02-03T15:20:57.779Z,2.96
2023-02-03T15:24:00.850Z,2.97
2023-02-03T15:27:03.955Z,2.98
2023-02-03T15:30:19.574Z,2.99
2023-02-03T15:33:24.197Z,3.02
2023-02-03T15:36:39.796Z,3.02
2023-02-03T15:39:54.368Z,3.01
2023-02-03T15:43:06.604Z,3.02
2023-02-03T15:46:19.306Z,3.01
2023-02-03T15:49:40.373Z,3.01
2023-02-03T15:52:46.047Z,3.00
2023-02-03T15:55:53.412Z,2.98
2023-02-03T15:58:59.037Z,2.98
2023-02-03T16:02:15.228Z,2.94
2023-02-03T16:05:32.036Z,2.88
2023-02-03T16:08:38.807Z,2.79
2023-02-03T16:15:05.304Z,2.63
2023-02-03T16:18:18.282Z,2.60
2023-02-03T16:21:34.251Z,2.58
2023-02-03T16:24:40.652Z,2.56
2023-02-03T16:27:45.657Z,2.53
2023-02-03T16:31:20.013Z,2.53
2023-02-03T16:34:41.902Z,2.54
2023-02-03T16:38:03.467Z,2.56
2023-02-03T16:41:35.491Z,2.60
2023-02-03T16:44:57.204Z,2.61
2023-02-03T16:48:19.045Z,2.62
2023-02-03T16:51:22.034Z,2.63
2023-02-03T16:54:25.605Z,2.64
2023-02-03T16:57:28.547Z,2.63
2023-02-03T17:00:31.721Z,2.63
2023-02-03T17:03:36.306Z,2.62
2023-02-03T17:06:40.145Z,2.61
2023-02-03T17:09:43.082Z,2.60
2023-02-03T17:12:46.304Z,2.60
2023-02-03T17:15:52.891Z,2.58
2023-02-03T17:18:55.893Z,2.58
2023-02-03T17:21:58.966Z,2.57
2023-02-03T17:25:02.129Z,2.55
2023-02-03T17:28:07.237Z,2.53
2023-02-03T17:31:19.133Z,2.52
2023-02-03T17:34:22.446Z,2.51
2023-02-03T17:37:25.460Z,2.50
2023-02-03T17:53:52.634Z,2.52
2023-02-03T17:56:55.549Z,2.52
2023-02-03T17:59:59.596Z,2.52
2023-02-03T18:03:02.985Z,2.53
2023-02-03T18:06:07.392Z,2.55
2023-02-03T18:09:10.456Z,2.58
2023-02-03T18:12:13.880Z,2.62
2023-02-03T18:15:16.905Z,2.68
2023-02-03T18:18:21.626Z,2.77
2023-02-03T18:21:26.420Z,2.86
2023-02-03T18:24:30.686Z,2.93
2023-02-03T18:27:33.701Z,3.01
2023-02-03T18:30:36.840Z,3.07
2023-02-03T18:33:40.404Z,3.14
2023-02-03T18:36:43.544Z,3.19
2023-02-03T18:39:47.266Z,3.23
2023-02-03T18:42:50.254Z,3.27
2023-02-03T18:45:53.104Z,3.31
2023-02-03T18:48:56.687Z,3.38
2023-02-03T18:51:59.552Z,3.43
2023-02-03T18:55:02.667Z,3.42
2023-02-03T18:58:05.813Z,3.47
2023-02-03T19:01:08.897Z,3.43
2023-02-03T19:04:11.921Z,3.43
2023-02-03T19:07:14.927Z,3.42
2023-02-03T19:10:18.445Z,3.38
2023-02-03T19:13:22.067Z,3.33
2023-02-03T19:16:25.082Z,3.28
2023-02-03T19:19:28.279Z,3.23
2023-02-03T19:22:32.761Z,3.07
2023-02-03T19:25:36.515Z,2.86
2023-02-03T19:28:40.724Z,2.65
2023-02-03T19:31:43.976Z,2.43
2023-02-03T19:34:47.249Z,2.27
2023-02-03T19:37:50.354Z,2.12
2023-02-03T19:40:53.326Z,2.01
2023-02-03T19:43:56.729Z,1.95
2023-02-03T19:46:59.775Z,1.90
2023-02-03T19:50:02.768Z,1.86
2023-02-03T19:53:08.458Z,1.85
2023-02-03T19:56:11.622Z,1.85
2023-02-03T19:59:14.647Z,1.86
2023-02-03T20:02:17.783Z,1.89
2023-02-03T20:05:21.300Z,1.91
2023-02-03T20:08:24.456Z,1.92
2023-02-03T20:11:28.534Z,1.91
2023-02-03T20:14:32.976Z,1.91
2023-02-03T20:17:36.352Z,1.93
2023-02-03T20:20:39.409Z,1.94
2023-02-03T20:23:42.604Z,1.97
2023-02-03T20:26:45.966Z,2.00
2023-02-03T20:29:49.782Z,2.04
2023-02-03T20:32:54.950Z,2.08
2023-02-03T20:35:58.733Z,2.20
2023-02-03T20:39:01.936Z,2.30
2023-02-03T20:42:19.244Z,2.33
2023-02-03T20:45:25.003Z,2.37
2023-02-03T20:48:28.361Z,2.39
2023-02-03T20:51:32.302Z,2.42
2023-02-03T20:54:35.629Z,2.45
2023-02-03T20:57:38.669Z,2.66
2023-02-03T21:00:42.299Z,2.92
2023-02-03T21:04:04.041Z,2.92
2023-02-03T21:07:14.557Z,2.84
2023-02-03T21:10:21.153Z,3.08
2023-02-03T21:13:26.329Z,3.36
2023-02-03T21:16:39.658Z,3.39
2023-02-03T21:19:42.774Z,3.62
2023-02-03T21:22:45.788Z,3.79
2023-02-03T21:25:49.152Z,3.79
2023-02-03T21:28:57.680Z,3.56
2023-02-03T21:32:00.962Z,3.32
2023-02-03T21:35:24.563Z,3.08
2023-02-03T21:38:33.266Z,3.03
2023-02-03T21:41:36.591Z,3.34
2023-02-03T21:44:40.679Z,3.33
2023-02-03T21:47:45.581Z,3.25
2023-02-03T21:50:48.798Z,3.14
2023-02-03T21:53:55.395Z,2.92
2023-02-03T21:56:58.473Z,2.78
2023-02-03T22:00:01.492Z,2.62
2023-02-03T22:03:08.481Z,2.47
2023-02-03T22:06:19.675Z,2.40
2023-02-03T22:09:25.115Z,2.32
2023-02-03T22:12:28.034Z,2.52
2023-02-03T22:15:31.143Z,3.18
2023-02-03T22:18:34.209Z,3.43
2023-02-03T22:21:37.232Z,3.67
2023-02-03T22:24:40.109Z,4.21
2023-02-03T22:27:43.213Z,4.75
2023-02-03T22:30:46.339Z,4.95
2023-02-03T22:33:49.357Z,4.93
2023-02-03T22:36:52.292Z,4.89
2023-02-03T22:39:55.158Z,4.91
2023-02-03T22:42:58.169Z,4.76
2023-02-03T22:46:04.893Z,5.08
2023-02-03T22:49:08.104Z,5.38
2023-02-03T22:52:11.089Z,5.62
2023-02-03T22:55:13.959Z,5.71
2023-02-03T22:58:16.941Z,5.55
2023-02-03T23:01:19.904Z,5.49
2023-02-03T23:04:23.766Z,5.54
2023-02-03T23:07:26.801Z,5.49
2023-02-03T23:10:33.254Z,5.53
2023-02-03T23:13:36.287Z,5.57
2023-02-03T23:16:39.425Z,5.65
2023-02-03T23:19:42.457Z,5.39
2023-02-03T23:22:45.595Z,5.22
2023-02-03T23:25:48.489Z,5.21
2023-02-03T23:28:51.434Z,5.44
2023-02-03T23:31:54.351Z,5.58
2023-02-03T23:35:15.936Z,5.60
2023-02-03T23:38:19.114Z,5.69
2023-02-03T23:41:21.944Z,5.59
2023-02-03T23:44:24.892Z,5.58
2023-02-03T23:47:27.737Z,5.55
2023-02-03T23:50:31.074Z,5.58
2023-02-03T23:53:34.162Z,5.27
2023-02-03T23:56:37.061Z,5.23
2023-02-03T23:59:40.026Z,5.29
